Time;durP1;ratioP1;P1;durP2;ratioP2;P2;SDS_P1;SDS_P2;PMS_P1;PMS_P2;Temp;Humidity;BMP_temperature;BMP_pressure;BME280_temperature;BME280_humidity;BME280_pressure;Samples;Min_cycle;Max_cycle;Signal;HPM_P1;HPM_P2
2022/08/12 00:44:09;;;;;;;7.07;1.60;;;20.10;91.20;;;;;;5054555;28;20058;-45
2022/08/12 00:46:47;;;;;;;2.65;1.50;;;20.10;91.30;;;;;;5051963;28;20117;-45
2022/08/12 00:49:15;;;;;;;3.50;1.60;;;20.10;91.30;;;;;;5041075;28;20044;-44
2022/08/12 00:54:27;;;;;;;7.85;1.80;;;;;;;;;;5050883;28;20048;-45
2022/08/12 00:56:57;;;;;;;2.30;1.63;;;19.90;91.70;;;;;;5054093;28;20388;-44
2022/08/12 00:59:24;;;;;;;2.50;1.60;;;19.70;92.20;;;;;;5052955;28;20037;-45
2022/08/12 01:01:51;;;;;;;5.50;1.70;;;19.10;92.90;;;;;;5051166;28;20145;-45
2022/08/12 01:12:41;;;;;;;3.50;1.60;;;19.00;93.90;;;;;;5056105;28;20039;-44
2022/08/12 01:15:08;;;;;;;3.75;2.15;;;19.10;93.80;;;;;;5057366;28;20033;-44
2022/08/12 01:17:41;;;;;;;4.78;2.03;;;19.30;93.50;;;;;;5046119;28;20457;-44
2022/08/12 01:20:11;;;;;;;3.72;1.60;;;;;;;;;;5054324;28;20492;-45
2022/08/12 01:22:41;;;;;;;3.15;1.70;;;;;;;;;;5058133;28;20572;-47
2022/08/12 01:25:13;;;;;;;3.28;2.00;;;19.40;93.30;;;;;;5055390;28;20033;-45
2022/08/12 01:27:41;;;;;;;7.75;2.13;;;19.40;93.70;;;;;;5050942;28;20032;-46
2022/08/12 01:30:10;;;;;;;3.42;1.65;;;19.40;93.80;;;;;;5006672;28;20068;-44
2022/08/12 01:32:39;;;;;;;4.80;1.85;;;19.40;93.70;;;;;;5037731;28;20137;-46
2022/08/12 01:35:05;;;;;;;7.18;2.15;;;19.50;99.90;;;;;;5018281;28;20477;-47
2022/08/12 01:37:52;;;;;;;3.33;1.80;;;19.40;99.90;;;;;;5054652;28;20427;-45
2022/08/12 01:40:22;;;;;;;4.47;1.60;;;19.20;99.90;;;;;;5055695;28;20480;-44
2022/08/12 01:42:50;;;;;;;2.95;1.92;;;18.70;94.50;;;;;;5019715;28;20045;-46
2022/08/12 01:45:23;;;;;;;4.85;1.83;;;18.80;94.60;;;;;;5054088;28;20029;-44
2022/08/12 01:48:12;;;;;;;3.13;1.80;;;18.90;94.70;;;;;;5054102;28;20068;-43
2022/08/12 01:51:00;;;;;;;2.75;1.92;;;18.50;94.90;;;;;;4988320;28;20401;-43
2022/08/12 01:53:41;;;;;;;3.15;1.80;;;18.50;95.10;;;;;;4991101;28;20570;-45
2022/08/12 01:56:09;;;;;;;5.03;1.70;;;18.40;95.40;;;;;;4990520;28;20038;-44
2022/08/12 02:01:33;;;;;;;2.10;1.75;;;17.60;97.00;;;;;;4990529;28;20045;-44
2022/08/12 02:14:01;;;;;;;4.93;1.85;;;17.60;98.00;;;;;;4991519;28;20418;-46
2022/08/12 02:16:57;;;;;;;2.53;1.80;;;17.50;98.30;;;;;;4992109;28;20102;-46
2022/08/12 02:19:53;;;;;;;7.47;2.33;;;17.60;98.60;;;;;;4985442;28;20109;-46
2022/08/12 02:22:30;;;;;;;4.32;1.83;;;17.90;98.50;;;;;;4988043;28;20479;-43
2022/08/12 02:25:09;;;;;;;2.83;1.45;;;17.70;98.50;;;;;;4957675;28;20569;-45
2022/08/12 02:27:55;;;;;;;4.40;1.58;;;17.60;99.10;;;;;;5014809;28;20041;-44
2022/08/12 02:30:25;;;;;;;2.75;1.90;;;17.70;99.30;;;;;;5024484;28;20049;-43
2022/08/12 02:32:52;;;;;;;3.00;1.92;;;17.80;99.20;;;;;;5051177;28;20021;-46
2022/08/12 02:35:21;;;;;;;3.45;1.90;;;17.70;99.50;;;;;;5052698;28;20044;-45
2022/08/12 02:37:51;;;;;;;5.93;1.90;;;17.50;99.90;;;;;;5052410;28;20032;-44
2022/08/12 02:40:18;;;;;;;3.78;1.65;;;17.20;99.90;;;;;;5052933;28;20116;-45
2022/08/12 02:43:16;;;;;;;3.85;1.90;;;16.90;99.90;;;;;;5052239;28;20075;-46
2022/08/12 02:45:52;;;;;;;3.08;1.90;;;16.90;99.90;;;;;;5052378;28;20043;-45
2022/08/12 02:48:40;;;;;;;3.33;1.90;;;17.00;99.90;;;;;;4966440;28;20037;-45
2022/08/12 02:51:10;;;;;;;4.60;1.90;;;17.30;99.90;;;;;;4974486;28;20125;-45
2022/08/12 02:53:37;;;;;;;3.83;1.70;;;17.10;99.90;;;;;;5002051;28;20640;-44
2022/08/12 02:56:05;;;;;;;4.32;2.00;;;17.10;99.90;;;;;;5002127;28;20116;-44
2022/08/12 02:58:33;;;;;;;3.55;2.03;;;17.30;99.90;;;;;;4993328;28;20060;-44
2022/08/12 03:01:01;;;;;;;3.60;2.47;;;17.50;99.90;;;;;;5001995;28;20112;-46
2022/08/12 03:03:32;;;;;;;2.90;1.70;;;17.80;99.90;;;;;;5000977;28;20038;-45
2022/08/12 03:06:13;;;;;;;5.38;2.10;;;18.00;99.90;;;;;;4971585;28;20100;-44
2022/08/12 03:08:41;;;;;;;7.00;2.70;;;18.10;99.90;;;;;;4944787;28;20053;-45
2022/08/12 03:11:16;;;;;;;7.18;2.38;;;18.30;99.90;;;;;;5001291;28;20705;-45
2022/08/12 03:13:49;;;;;;;5.07;1.90;;;18.30;99.90;;;;;;4997630;28;20387;-44
2022/08/12 03:16:16;;;;;;;6.40;2.40;;;18.30;99.90;;;;;;5006762;28;20105;-45
2022/08/12 03:18:42;;;;;;;5.07;2.25;;;18.40;99.90;;;;;;5014505;28;20041;-44
2022/08/12 03:21:08;;;;;;;5.35;1.98;;;18.40;99.90;;;;;;4990205;28;20116;-46
2022/08/12 03:23:39;;;;;;;4.47;1.98;;;18.50;99.90;;;;;;5052023;28;20393;-44
2022/08/12 03:26:07;;;;;;;5.43;2.10;;;18.50;99.90;;;;;;5051168;28;20029;-43
2022/08/12 03:28:50;;;;;;;3.72;1.77;;;18.50;99.90;;;;;;5051694;28;20237;-44
2022/08/12 03:31:33;;;;;;;5.47;2.22;;;18.50;99.90;;;;;;5045867;28;20044;-44
2022/08/12 03:34:09;;;;;;;7.43;2.22;;;18.40;99.90;;;;;;5051369;28;20610;-43
2022/08/12 03:36:36;;;;;;;7.03;2.35;;;18.50;99.90;;;;;;5051535;28;20051;-43
2022/08/12 03:42:21;;;;;;;5.82;2.40;;;18.50;99.90;;;;;;5046743;28;20117;-44
2022/08/12 04:01:56;;;;;;;5.72;2.50;;;18.50;99.90;;;;;;4937966;28;20065;-45
2022/08/12 04:04:27;;;;;;;7.93;2.42;;;18.50;99.90;;;;;;4970755;28;20078;-43
2022/08/12 04:06:53;;;;;;;5.00;2.05;;;18.50;99.90;;;;;;4970232;28;20465;-43
2022/08/12 04:09:20;;;;;;;9.30;2.08;;;18.50;99.90;;;;;;4931309;29;20158;-45
2022/08/12 04:14:32;;;;;;;6.50;2.03;;;18.50;99.90;;;;;;4928864;29;20046;-45
2022/08/12 04:16:59;;;;;;;5.25;2.03;;;18.60;99.90;;;;;;4924711;29;20527;-43
2022/08/12 04:19:25;;;;;;;3.35;2.17;;;18.60;99.90;;;;;;4930743;29;20075;-45
2022/08/12 04:21:54;;;;;;;7.28;2.30;;;18.70;99.90;;;;;;4953528;28;20073;-45
2022/08/12 04:24:20;;;;;;;5.32;2.30;;;18.70;99.90;;;;;;4987947;28;20053;-43
2022/08/12 04:26:46;;;;;;;4.57;2.08;;;18.70;99.90;;;;;;4973163;28;20049;-45
2022/08/12 04:29:13;;;;;;;6.65;2.22;;;18.80;99.90;;;;;;4987936;28;20200;-43
2022/08/12 04:31:41;;;;;;;4.63;2.70;;;18.80;99.90;;;;;;4987122;28;20069;-44
2022/08/12 04:34:08;;;;;;;5.25;2.75;;;18.80;99.90;;;;;;4944497;28;20040;-44
2022/08/12 04:36:36;;;;;;;5.93;2.80;;;18.80;99.90;;;;;;4988086;28;20418;-43
2022/08/12 04:39:03;;;;;;;4.88;2.33;;;18.80;99.90;;;;;;4987686;28;20026;-43
2022/08/12 04:41:30;;;;;;;4.10;2.35;;;18.80;99.90;;;;;;5029491;28;20393;-42
2022/08/12 04:43:56;;;;;;;7.43;2.70;;;18.50;99.90;;;;;;5033574;28;20033;-44
2022/08/12 04:46:23;;;;;;;6.10;2.83;;;18.20;99.90;;;;;;4996078;28;20032;-43
2022/08/12 04:48:49;;;;;;;9.60;2.80;;;18.30;99.90;;;;;;5032352;28;20120;-44
2022/08/12 04:51:16;;;;;;;7.50;2.53;;;18.40;99.90;;;;;;5033216;28;20036;-44
2022/08/12 04:53:42;;;;;;;5.65;2.78;;;18.60;99.90;;;;;;5001750;28;20046;-43
2022/08/12 04:56:11;;;;;;;7.93;3.15;;;18.80;99.90;;;;;;4998914;28;20037;-44
2022/08/12 04:58:37;;;;;;;6.63;2.63;;;18.90;99.90;;;;;;5032026;28;20108;-44
2022/08/12 05:01:04;;;;;;;4.50;2.80;;;19.10;99.90;;;;;;5032071;28;20022;-44
2022/08/12 05:03:30;;;;;;;10.25;3.08;;;19.20;99.90;;;;;;5032676;28;20032;-44
2022/08/12 05:05:56;;;;;;;9.48;3.20;;;18.80;99.90;;;;;;5011835;28;20381;-44
2022/08/12 05:08:24;;;;;;;4.13;2.70;;;18.70;99.90;;;;;;5006475;28;20037;-44
2022/08/12 05:10:51;;;;;;;5.93;2.78;;;18.50;99.90;;;;;;5031975;28;20569;-45
2022/08/12 05:13:19;;;;;;;7.15;2.83;;;18.60;99.90;;;;;;4994910;28;20033;-44
2022/08/12 05:15:45;;;;;;;8.57;3.10;;;18.50;99.90;;;;;;5030910;28;20045;-45
2022/08/12 05:18:12;;;;;;;11.15;3.40;;;18.70;99.90;;;;;;4983847;28;20056;-45
2022/08/12 05:20:39;;;;;;;5.20;2.90;;;18.80;99.90;;;;;;5033399;28;20039;-45
2022/08/12 05:23:10;;;;;;;7.75;3.15;;;19.00;99.90;;;;;;5031276;28;20095;-45
2022/08/12 05:25:36;;;;;;;5.82;2.67;;;19.10;99.90;;;;;;5032598;28;20041;-45
2022/08/12 05:28:04;;;;;;;11.20;3.40;;;19.30;99.90;;;;;;5033953;28;20116;-45
2022/08/12 05:30:32;;;;;;;6.45;2.70;;;19.50;99.90;;;;;;5033610;28;20112;-45
2022/08/12 05:33:04;;;;;;;8.63;2.85;;;19.40;99.90;;;;;;5033781;28;20039;-46
2022/08/12 05:35:35;;;;;;;6.10;3.20;;;19.40;99.90;;;;;;5033842;28;20029;-45
2022/08/12 05:40:47;;;;;;;7.60;3.10;;;19.80;99.90;;;;;;5033851;28;20060;-45
2022/08/12 05:43:13;;;;;;;5.68;3.00;;;20.00;99.90;;;;;;5033965;28;20034;-46
2022/08/12 05:45:39;;;;;;;11.65;3.58;;;20.10;99.90;;;;;;5033483;28;20473;-45
2022/08/12 05:48:05;;;;;;;5.43;2.83;;;20.20;99.90;;;;;;4998720;28;20048;-45
2022/08/12 05:50:31;;;;;;;6.13;3.28;;;20.20;99.90;;;;;;5033949;28;20566;-45
2022/08/12 05:52:57;;;;;;;8.63;3.78;;;20.30;99.90;;;;;;5032976;28;20124;-45
2022/08/12 05:55:23;;;;;;;11.50;3.22;;;20.30;99.90;;;;;;5033314;28;20125;-45
2022/08/12 05:57:54;;;;;;;7.63;3.15;;;20.20;99.90;;;;;;5033368;28;20489;-47
2022/08/12 06:00:24;;;;;;;7.72;3.53;;;20.30;99.90;;;;;;5033769;28;20037;-45
2022/08/12 06:02:55;;;;;;;7.35;3.08;;;20.30;99.90;;;;;;5033247;28;20063;-45
2022/08/12 06:05:21;;;;;;;7.35;3.45;;;20.30;99.90;;;;;;5033149;28;20041;-46
2022/08/12 06:07:48;;;;;;;8.88;3.95;;;20.40;99.90;;;;;;5033489;28;20041;-45
2022/08/12 06:10:16;;;;;;;6.70;4.97;;;20.60;99.90;;;;;;5033226;28;20512;-46
2022/08/12 06:12:42;;;;;;;9.23;4.93;;;20.70;99.90;;;;;;5033607;28;20037;-45
2022/08/12 06:15:08;;;;;;;6.38;4.60;;;20.60;99.90;;;;;;4981865;28;20055;-45
2022/08/12 06:17:36;;;;;;;8.35;4.00;;;20.70;99.90;;;;;;4965520;28;20046;-45
2022/08/12 06:20:02;;;;;;;7.15;3.75;;;20.80;99.90;;;;;;5032850;28;20037;-45
2022/08/12 06:22:28;;;;;;;8.55;3.90;;;20.90;99.90;;;;;;4997916;28;20103;-45
2022/08/12 06:24:54;;;;;;;8.45;3.20;;;21.00;99.90;;;;;;4988790;28;20053;-45
2022/08/12 06:27:20;;;;;;;6.90;3.20;;;21.10;99.90;;;;;;5028451;28;20040;-45
2022/08/12 06:29:46;;;;;;;8.48;2.90;;;21.30;99.90;;;;;;4987793;28;20136;-45
2022/08/12 06:32:14;;;;;;;5.15;3.00;;;21.40;99.90;;;;;;4985673;28;20489;-45
2022/08/12 06:34:39;;;;;;;10.40;4.32;;;21.60;99.90;;;;;;5032668;28;20532;-45
2022/08/12 06:37:06;;;;;;;7.35;3.25;;;21.70;99.90;;;;;;5033521;28;20025;-45
2022/08/12 06:39:32;;;;;;;5.40;2.97;;;21.90;99.90;;;;;;5033052;28;20036;-45
2022/08/12 06:44:42;;;;;;;8.23;3.95;;;;;;;;;;5032933;28;20045;-45
2022/08/12 06:47:08;;;;;;;10.15;3.30;;;22.50;99.90;;;;;;4989210;28;20041;-45
2022/08/12 06:49:35;;;;;;;7.10;2.65;;;22.60;99.90;;;;;;5026804;28;20053;-45
2022/08/12 06:52:03;;;;;;;9.43;3.53;;;22.60;99.90;;;;;;5032616;28;20383;-46
2022/08/12 06:54:29;;;;;;;9.15;3.28;;;22.60;99.90;;;;;;5032868;28;20034;-45
2022/08/12 06:56:56;;;;;;;8.85;3.75;;;22.70;99.90;;;;;;4981081;28;20103;-45
2022/08/12 06:59:21;;;;;;;9.73;3.60;;;22.90;99.90;;;;;;5032455;28;20064;-45
2022/08/12 07:01:48;;;;;;;8.60;3.15;;;23.10;99.90;;;;;;4992398;28;20556;-46
2022/08/12 07:04:16;;;;;;;10.02;2.95;;;23.50;99.90;;;;;;4972866;28;20475;-46
2022/08/12 07:06:43;;;;;;;7.55;2.90;;;;;;;;;;4989366;28;20050;-45
2022/08/12 07:09:09;;;;;;;12.35;3.97;;;23.80;99.90;;;;;;4990889;28;20109;-45
2022/08/12 07:11:40;;;;;;;7.75;3.00;;;23.70;99.80;;;;;;4988282;28;20034;-46
2022/08/12 07:14:06;;;;;;;9.57;2.92;;;23.70;99.90;;;;;;4988698;28;20050;-45
2022/08/12 07:19:17;;;;;;;6.93;2.47;;;24.00;99.70;;;;;;4971852;28;20050;-46
2022/08/12 07:21:43;;;;;;;4.07;2.13;;;24.10;98.80;;;;;;4989859;28;20030;-46
2022/08/12 07:24:09;;;;;;;7.43;3.28;;;24.30;98.70;;;;;;4989991;28;20125;-41
2022/08/12 07:26:39;;;;;;;6.32;2.95;;;;;;;;;;4957344;28;20586;-44
2022/08/12 07:29:05;;;;;;;8.75;2.88;;;24.80;97.10;;;;;;4982975;28;20050;-46
2022/08/12 07:31:30;;;;;;;9.23;3.30;;;24.70;97.30;;;;;;4972044;28;20630;-46
2022/08/12 07:33:58;;;;;;;5.40;2.22;;;24.80;97.10;;;;;;4957466;28;20038;-46
2022/08/12 07:36:26;;;;;;;3.95;2.20;;;;;;;;;;5031070;28;20041;-42
2022/08/12 07:38:52;;;;;;;10.20;2.50;;;;;;;;;;5029707;28;20029;-44
2022/08/12 07:41:20;;;;;;;6.15;2.25;;;25.30;99.00;;;;;;5031159;28;20385;-46
2022/08/12 07:43:49;;;;;;;8.98;2.40;;;25.20;95.60;;;;;;5031679;28;20723;-46
2022/08/12 07:46:17;;;;;;;7.68;2.53;;;;;;;;;;5031611;28;20034;-47
2022/08/12 07:48:44;;;;;;;8.63;2.55;;;;;;;;;;5031404;28;20044;-47
2022/08/12 07:51:11;;;;;;;10.52;3.25;;;25.70;95.30;;;;;;5031685;28;20038;-47
2022/08/12 07:53:37;;;;;;;3.55;2.08;;;25.80;95.60;;;;;;5006385;28;20489;-47
2022/08/12 07:56:05;;;;;;;4.93;2.60;;;25.90;95.20;;;;;;5007869;28;20569;-47
2022/08/12 07:58:32;;;;;;;4.75;2.05;;;26.20;95.20;;;;;;5008799;28;20057;-46
2022/08/12 08:01:01;;;;;;;3.20;1.90;;;;;;;;;;5009899;28;20042;-46
2022/08/12 08:03:28;;;;;;;6.90;2.97;;;26.20;99.90;;;;;;5009148;28;20088;-46
2022/08/12 08:05:55;;;;;;;4.90;1.88;;;;;;;;;;5009085;28;20042;-47
2022/08/12 08:08:26;;;;;;;4.90;2.22;;;;;;;;;;5008993;28;20121;-48
2022/08/12 08:13:41;;;;;;;6.97;2.13;;;27.10;93.60;;;;;;5008916;28;20144;-47
2022/08/12 08:16:07;;;;;;;5.15;2.25;;;27.20;93.00;;;;;;5009127;28;20040;-47
2022/08/12 08:18:33;;;;;;;6.35;2.00;;;27.20;93.10;;;;;;5013109;28;20379;-47
2022/08/12 08:20:59;;;;;;;5.13;2.22;;;;;;;;;;5012765;28;20104;-47
2022/08/12 08:26:12;;;;;;;5.05;2.50;;;27.40;99.90;;;;;;5035194;28;20060;-47
2022/08/12 08:28:37;;;;;;;9.88;3.15;;;27.60;92.50;;;;;;5034954;28;20040;-47
2022/08/12 08:31:03;;;;;;;5.82;2.55;;;27.80;92.20;;;;;;5034657;28;20037;-48
2022/08/12 08:33:31;;;;;;;8.18;2.55;;;;;;;;;;5034920;28;20036;-47
2022/08/12 08:35:58;;;;;;;3.75;2.28;;;28.60;92.20;;;;;;5035773;28;20048;-47
2022/08/12 08:38:24;;;;;;;6.18;2.10;;;28.60;90.60;;;;;;5034678;28;20092;-47
2022/08/12 08:43:34;;;;;;;8.80;2.60;;;;;;;;;;5031370;28;20040;-48
2022/08/12 08:46:04;;;;;;;8.30;2.13;;;29.30;99.00;;;;;;5034794;28;20131;-48
2022/08/12 08:48:33;;;;;;;9.95;2.20;;;29.20;89.80;;;;;;5035363;28;20064;-48
2022/08/12 08:50:59;;;;;;;7.30;2.35;;;29.50;90.00;;;;;;5034481;28;20042;-48
2022/08/12 08:53:25;;;;;;;7.10;2.33;;;29.40;88.70;;;;;;5034560;28;20033;-48
2022/08/12 08:55:53;;;;;;;5.03;1.88;;;29.60;88.50;;;;;;5034427;28;20033;-48
2022/08/12 08:58:21;;;;;;;6.15;2.20;;;29.40;88.00;;;;;;5035118;28;20053;-47
2022/08/12 09:00:50;;;;;;;5.93;2.00;;;29.20;87.30;;;;;;5034523;28;20392;-48
2022/08/12 09:03:17;;;;;;;12.05;3.45;;;29.30;86.90;;;;;;5034578;28;20120;-47
2022/08/12 09:05:43;;;;;;;9.75;2.83;;;29.20;88.40;;;;;;5034154;28;20485;-47
2022/08/12 09:08:09;;;;;;;7.22;2.05;;;29.50;88.10;;;;;;4989514;28;20129;-47
2022/08/12 09:10:37;;;;;;;6.63;3.25;;;29.60;86.30;;;;;;5034152;28;20049;-48
2022/08/12 09:15:48;;;;;;;12.25;11.05;;;30.00;91.70;;;;;;5031405;28;20068;-47
2022/08/12 09:18:14;;;;;;;8.57;3.28;;;30.20;86.70;;;;;;5033328;28;20057;-47
2022/08/12 09:20:41;;;;;;;10.88;5.63;;;;;;;;;;4997906;28;20040;-48
2022/08/12 09:23:09;;;;;;;7.53;3.00;;;30.10;85.40;;;;;;5033572;28;20047;-47
2022/08/12 09:25:40;;;;;;;4.50;2.50;;;29.80;85.00;;;;;;5033770;28;20112;-48
2022/08/12 09:28:09;;;;;;;5.45;2.13;;;;;;;;;;5033427;28;20053;-47
2022/08/12 09:30:36;;;;;;;5.28;2.40;;;30.40;91.40;;;;;;5013842;28;20053;-47
2022/08/12 09:33:03;;;;;;;8.75;2.80;;;30.30;94.30;;;;;;5033279;28;20029;-47
2022/08/12 09:35:32;;;;;;;5.47;2.92;;;30.60;94.50;;;;;;5033005;28;20029;-48
2022/08/12 09:38:03;;;;;;;11.98;2.90;;;31.10;87.40;;;;;;5033819;28;20034;-47
2022/08/12 09:40:30;;;;;;;8.48;2.60;;;;;;;;;;5034289;28;20029;-48
2022/08/12 09:45:47;;;;;;;8.32;2.45;;;31.30;81.80;;;;;;5030493;28;20048;-47
2022/08/12 09:48:18;;;;;;;7.20;2.47;;;31.10;81.30;;;;;;5033648;28;20041;-47
2022/08/12 09:50:45;;;;;;;3.83;2.40;;;31.40;83.60;;;;;;5034552;28;20091;-47
2022/08/12 09:53:19;;;;;;;7.80;2.63;;;31.80;82.60;;;;;;5033281;28;20030;-47
2022/08/12 09:55:51;;;;;;;5.30;2.97;;;;;;;;;;5033636;28;20037;-47
2022/08/12 09:58:28;;;;;;;4.78;2.65;;;32.30;80.50;;;;;;5033302;28;20076;-48
2022/08/12 10:01:05;;;;;;;5.20;2.50;;;31.90;80.30;;;;;;4971797;28;20038;-47
2022/08/12 10:03:36;;;;;;;5.55;2.25;;;32.00;81.00;;;;;;5032386;28;20084;-47
2022/08/12 10:06:04;;;;;;;7.15;2.80;;;;;;;;;;5033119;28;20033;-48
2022/08/12 10:08:30;;;;;;;7.93;2.60;;;;;;;;;;5033424;28;20096;-47
2022/08/12 10:14:02;;;;;;;6.22;2.38;;;33.20;78.70;;;;;;4942278;29;20039;-47
2022/08/12 10:16:32;;;;;;;5.05;2.42;;;33.20;78.80;;;;;;4944322;29;20052;-47
2022/08/12 10:19:02;;;;;;;6.63;2.20;;;33.30;77.80;;;;;;4945157;28;20035;-48
2022/08/12 10:21:35;;;;;;;3.78;2.30;;;33.60;78.10;;;;;;4954868;28;20048;-46
2022/08/12 10:24:03;;;;;;;7.07;2.08;;;33.90;76.50;;;;;;4951974;28;20110;-48
2022/08/12 10:32:00;;;;;;;4.45;1.90;;;32.90;70.90;;;;;;4946588;29;20128;-45
2022/08/12 10:34:25;;;;;;;6.75;2.33;;;32.80;71.20;;;;;;4946854;29;20569;-45
2022/08/12 10:36:57;;;;;;;7.78;2.58;;;33.00;70.20;;;;;;4952746;28;20035;-45
2022/08/12 10:39:25;;;;;;;4.15;1.67;;;33.20;70.40;;;;;;4948374;29;20111;-45
2022/08/12 10:44:36;;;;;;;7.88;2.10;;;33.20;69.20;;;;;;4950559;28;20042;-47
2022/08/12 10:47:03;;;;;;;4.47;2.05;;;33.10;67.60;;;;;;4950380;28;20397;-47
2022/08/12 10:49:39;;;;;;;6.93;2.10;;;33.20;67.90;;;;;;5031997;28;20045;-47
2022/08/12 10:52:05;;;;;;;6.82;2.30;;;33.40;68.50;;;;;;5013841;28;20511;-47
2022/08/12 10:54:31;;;;;;;2.95;1.83;;;33.50;67.90;;;;;;4958033;28;20425;-47
2022/08/12 10:56:59;;;;;;;4.78;2.03;;;33.80;68.30;;;;;;4990434;28;20053;-47
2022/08/12 10:59:29;;;;;;;2.72;1.80;;;33.90;69.40;;;;;;4991200;28;20462;-47
2022/08/12 11:01:56;;;;;;;4.03;1.80;;;34.40;69.30;;;;;;4990956;28;20037;-47
2022/08/12 11:04:23;;;;;;;3.10;2.10;;;34.30;68.80;;;;;;5009960;28;20493;-46
2022/08/12 11:06:52;;;;;;;5.65;1.63;;;34.50;68.90;;;;;;5008256;28;20032;-48
2022/08/12 11:09:36;;;;;;;3.40;1.88;;;33.80;71.20;;;;;;5009966;28;20049;-47
2022/08/12 11:12:05;;;;;;;5.38;1.80;;;34.20;83.20;;;;;;5010399;28;20117;-47
2022/08/12 11:14:37;;;;;;;3.90;2.20;;;34.10;68.40;;;;;;5009156;28;20050;-47
2022/08/12 11:17:07;;;;;;;8.45;2.40;;;34.40;74.50;;;;;;5009800;28;20077;-47
2022/08/12 11:19:35;;;;;;;4.05;2.17;;;34.40;66.60;;;;;;5009802;28;20034;-47
2022/08/12 11:22:02;;;;;;;2.53;1.70;;;;;;;;;;5009402;28;20050;-48
2022/08/12 11:24:28;;;;;;;4.35;1.73;;;35.20;67.10;;;;;;5005115;28;20588;-47
2022/08/12 11:26:54;;;;;;;6.25;2.00;;;;;;;;;;4996855;28;20080;-48
2022/08/12 11:29:23;;;;;;;5.72;1.95;;;;;;;;;;5031504;28;20124;-47
2022/08/12 11:31:49;;;;;;;3.63;2.22;;;;;;;;;;5031641;28;20033;-47
2022/08/12 11:34:15;;;;;;;3.40;2.33;;;;;;;;;;5031825;28;20091;-47
2022/08/12 11:37:06;;;;;;;5.50;2.10;;;34.60;72.60;;;;;;4982970;28;20038;-47
2022/08/12 11:39:32;;;;;;;4.25;2.10;;;34.60;67.90;;;;;;5031149;28;20065;-47
2022/08/12 11:42:02;;;;;;;4.72;2.50;;;;;;;;;;4980345;28;20076;-47
2022/08/12 11:44:28;;;;;;;5.63;1.88;;;34.10;76.20;;;;;;5031899;28;20045;-47
2022/08/12 11:46:54;;;;;;;5.82;2.42;;;34.20;84.40;;;;;;5031728;28;20477;-48
2022/08/12 11:49:22;;;;;;;2.95;2.15;;;34.50;86.50;;;;;;5032097;28;20036;-47
2022/08/12 11:51:48;;;;;;;7.20;2.40;;;34.90;91.40;;;;;;5030876;28;20550;-47
2022/08/12 11:54:13;;;;;;;5.82;2.38;;;34.90;89.20;;;;;;4979565;28;20133;-47
2022/08/12 11:56:39;;;;;;;2.78;2.00;;;;;;;;;;4979712;28;20133;-47
2022/08/12 11:59:05;;;;;;;3.25;2.58;;;35.80;90.30;;;;;;4960100;28;20546;-47
2022/08/12 12:01:32;;;;;;;4.30;2.38;;;;;;;;;;4960022;28;20047;-47
2022/08/12 12:03:58;;;;;;;4.88;2.22;;;;;;;;;;4962137;28;20050;-47
2022/08/12 12:06:24;;;;;;;6.57;2.17;;;;;;;;;;4973238;28;20074;-47
2022/08/12 12:08:50;;;;;;;6.32;2.30;;;;;;;;;;4939944;28;20098;-47
2022/08/12 12:11:16;;;;;;;3.92;2.40;;;;;;;;;;4960160;28;20039;-47
2022/08/12 12:13:42;;;;;;;5.22;2.15;;;;;;;;;;4961372;28;20035;-47
2022/08/12 12:16:09;;;;;;;4.38;2.35;;;;;;;;;;4926069;29;20062;-47
2022/08/12 12:18:35;;;;;;;6.43;2.80;;;;;;;;;;4964660;28;20430;-49
2022/08/12 12:21:05;;;;;;;6.82;2.65;;;;;;;;;;4962655;28;20532;-47
2022/08/12 12:23:33;;;;;;;7.38;2.67;;;;;;;;;;4969288;28;20035;-47
2022/08/12 12:25:59;;;;;;;3.58;1.98;;;34.70;92.60;;;;;;5002033;28;20088;-47
2022/08/12 12:28:25;;;;;;;4.80;2.20;;;34.80;92.10;;;;;;5006718;28;20026;-48
2022/08/12 12:30:51;;;;;;;3.35;2.10;;;34.60;67.90;;;;;;4979058;28;20521;-47
2022/08/12 12:33:19;;;;;;;4.07;2.20;;;34.20;66.90;;;;;;5010867;28;20394;-47
2022/08/12 12:35:45;;;;;;;3.10;2.40;;;34.20;67.70;;;;;;5010032;28;20120;-47
2022/08/12 12:38:13;;;;;;;7.28;2.50;;;34.00;68.20;;;;;;5010251;28;20684;-47
2022/08/12 12:40:44;;;;;;;3.90;2.38;;;33.80;67.10;;;;;;5010942;28;20057;-47
2022/08/12 12:46:32;;;;;;;5.82;2.80;;;33.00;67.80;;;;;;5006979;28;20116;-45
2022/08/12 12:48:57;;;;;;;3.92;2.53;;;32.90;67.80;;;;;;5010075;28;20466;-46
2022/08/12 12:51:23;;;;;;;7.25;3.10;;;32.80;68.70;;;;;;5010190;28;20022;-46
2022/08/12 12:53:49;;;;;;;5.80;2.47;;;32.70;68.50;;;;;;4976223;28;20038;-45
2022/08/12 12:56:19;;;;;;;4.30;2.35;;;32.60;68.60;;;;;;4991370;28;20046;-46
2022/08/12 12:58:48;;;;;;;5.47;2.60;;;32.50;70.10;;;;;;5027311;28;20050;-46
2022/08/12 13:01:17;;;;;;;5.45;2.20;;;32.70;74.70;;;;;;5030014;28;20038;-47
2022/08/12 13:03:44;;;;;;;4.45;2.05;;;32.80;77.50;;;;;;5032785;28;20048;-46
2022/08/12 13:06:12;;;;;;;4.68;2.40;;;33.00;76.50;;;;;;5033535;28;20033;-45
2022/08/12 13:08:37;;;;;;;4.15;2.35;;;33.70;77.70;;;;;;5033514;28;20045;-46
2022/08/12 13:11:05;;;;;;;8.38;2.78;;;33.80;75.20;;;;;;5034135;28;20036;-45
2022/08/12 13:13:35;;;;;;;5.72;2.50;;;33.70;74.20;;;;;;5009578;28;20034;-47
2022/08/12 13:16:02;;;;;;;4.57;2.55;;;33.30;73.30;;;;;;5031150;28;20033;-47
2022/08/12 13:18:35;;;;;;;5.68;2.95;;;33.30;73.40;;;;;;4995921;28;20560;-47
2022/08/12 13:21:02;;;;;;;2.70;2.30;;;33.30;73.80;;;;;;5032140;28;20037;-59
2022/08/12 13:23:28;;;;;;;2.90;2.30;;;33.00;73.40;;;;;;5032074;28;20077;-46
2022/08/12 13:25:56;;;;;;;5.13;2.35;;;32.80;75.00;;;;;;5032525;28;20025;-46
2022/08/12 13:28:27;;;;;;;5.80;2.50;;;32.60;77.00;;;;;;5032829;28;20033;-46
2022/08/12 13:30:56;;;;;;;;;;;32.40;90.40;;;;;;5033408;28;20083;-46
2022/08/12 13:33:26;;;;;;;4.65;2.42;;;32.10;76.60;;;;;;5033777;28;20410;-46
2022/08/12 13:35:59;;;;;;;3.47;2.55;;;31.90;87.10;;;;;;5030429;28;20040;-46
2022/08/12 13:38:40;;;;;;;6.60;2.95;;;31.90;68.40;;;;;;5030766;28;20088;-46
2022/08/12 13:41:07;;;;;;;5.32;2.80;;;32.10;68.50;;;;;;5029753;28;20029;-46
2022/08/12 13:43:33;;;;;;;5.07;2.72;;;32.10;68.20;;;;;;5032148;28;20037;-46
2022/08/12 13:46:00;;;;;;;5.22;3.25;;;31.90;68.20;;;;;;5028207;28;20032;-46
2022/08/12 13:48:26;;;;;;;5.32;2.92;;;31.80;72.70;;;;;;5028659;28;20485;-46
2022/08/12 13:50:52;;;;;;;4.38;2.65;;;31.80;69.60;;;;;;5032220;28;20029;-46
2022/08/12 13:53:18;;;;;;;4.30;2.90;;;;;;;;;;5033475;28;20039;-46
2022/08/12 13:55:51;;;;;;;4.80;2.78;;;;;;;;;;5032701;28;20068;-46
2022/08/12 13:58:21;;;;;;;4.15;2.65;;;31.60;69.90;;;;;;4994413;28;20137;-46
2022/08/12 14:00:50;;;;;;;4.47;2.60;;;;;;;;;;4998278;28;20037;-46
2022/08/12 14:03:20;;;;;;;6.97;3.00;;;31.40;68.50;;;;;;5025575;28;20041;-46
2022/08/12 14:05:47;;;;;;;3.30;2.47;;;31.40;68.90;;;;;;4986375;28;20041;-46
2022/08/12 14:08:14;;;;;;;5.13;2.90;;;31.30;68.90;;;;;;5033221;28;20366;-46
2022/08/12 14:10:51;;;;;;;6.82;2.92;;;31.30;69.30;;;;;;4997471;28;20060;-46
2022/08/12 14:13:19;;;;;;;2.92;2.55;;;31.30;69.50;;;;;;5032577;28;20037;-47
2022/08/12 14:15:47;;;;;;;6.20;2.35;;;31.20;68.60;;;;;;5031057;28;20116;-46
2022/08/12 14:18:22;;;;;;;4.63;2.80;;;31.10;68.50;;;;;;5032134;28;20025;-46
2022/08/12 14:20:57;;;;;;;7.00;2.65;;;31.00;68.20;;;;;;5032728;28;20108;-46
2022/08/12 14:23:25;;;;;;;4.90;2.60;;;31.00;69.30;;;;;;5031624;28;20029;-46
2022/08/12 14:25:52;;;;;;;3.83;3.05;;;30.90;68.60;;;;;;5032598;28;20037;-46
2022/08/12 14:28:19;;;;;;;3.92;2.75;;;30.80;68.70;;;;;;5032061;28;20025;-45
2022/08/12 14:30:50;;;;;;;3.90;2.58;;;30.80;68.90;;;;;;5029377;28;20029;-45
2022/08/12 14:33:16;;;;;;;3.07;2.47;;;30.50;68.70;;;;;;5029798;28;20057;-47
2022/08/12 14:35:43;;;;;;;5.35;2.53;;;30.50;68.70;;;;;;5028232;28;20029;-46
2022/08/12 14:38:19;;;;;;;4.68;2.40;;;30.50;69.30;;;;;;5031999;28;20376;-46
2022/08/12 14:40:47;;;;;;;4.75;2.78;;;30.40;68.80;;;;;;5029491;28;20034;-46
2022/08/12 14:43:13;;;;;;;5.45;2.70;;;30.50;68.80;;;;;;5032183;28;20465;-46
2022/08/12 14:45:39;;;;;;;5.50;2.70;;;30.60;69.30;;;;;;5033211;28;20033;-46
2022/08/12 14:48:05;;;;;;;4.85;3.08;;;30.70;69.70;;;;;;5029502;28;20033;-46
2022/08/12 14:50:32;;;;;;;5.15;2.50;;;30.70;70.70;;;;;;4987209;28;20054;-47
2022/08/12 14:52:58;;;;;;;5.65;2.75;;;30.70;69.80;;;;;;5032395;28;20048;-45
2022/08/12 14:55:32;;;;;;;7.75;2.78;;;30.50;70.10;;;;;;5033166;28;20038;-45
2022/08/12 14:57:59;;;;;;;4.30;2.80;;;30.60;70.50;;;;;;4969418;28;20099;-46
2022/08/12 15:03:13;;;;;;;6.53;2.88;;;30.50;70.00;;;;;;5031745;28;20043;-47
2022/08/12 15:05:40;;;;;;;7.43;2.67;;;30.50;70.00;;;;;;5028048;28;20041;-46
2022/08/12 15:08:12;;;;;;;4.45;3.15;;;30.50;70.10;;;;;;5027424;28;20037;-45
2022/08/12 15:10:45;;;;;;;;;;;30.40;69.80;;;;;;4983755;28;20137;-46
2022/08/12 15:13:11;;;;;;;4.03;2.90;;;30.40;70.20;;;;;;5028983;28;20016;-47
2022/08/12 15:15:46;;;;;;;7.18;3.22;;;30.30;70.50;;;;;;5032099;28;20404;-47
2022/08/12 15:18:16;;;;;;;9.68;3.20;;;;;;;;;;5031953;28;20029;-46